Time;durP1;ratioP1;P1;durP2;ratioP2;P2;SDS_P1;SDS_P2;PMS_P1;PMS_P2;Temp;Humidity;BMP_temperature;BMP_pressure;BME280_temperature;BME280_humidity;BME280_pressure;Samples;Min_cycle;Max_cycle;Signal;HPM_P1;HPM_P2
2021/08/04 00:02:37;;;;;;;1.37;1.20;;;19.30;69.80;;;;;;10378664;28;20218;-33
2021/08/04 00:07:59;;;;;;;3.03;1.40;;;19.40;69.60;;;;;;10378308;28;20701;-32
2021/08/04 00:13:23;;;;;;;1.40;0.97;;;19.30;69.80;;;;;;10370704;28;20578;-30
2021/08/04 00:18:45;;;;;;;1.13;0.90;;;19.30;69.60;;;;;;10417665;22;20648;-27
2021/08/04 00:24:07;;;;;;;1.07;0.90;;;19.30;69.50;;;;;;10370752;28;20219;-26
2021/08/04 00:29:30;;;;;;;3.00;1.10;;;19.20;69.20;;;;;;10347247;28;20215;-28
2021/08/04 00:34:53;;;;;;;1.00;0.90;;;19.20;69.30;;;;;;10331742;28;20571;-25
2021/08/04 00:40:15;;;;;;;1.67;1.00;;;19.10;69.90;;;;;;10322970;28;20227;-28
2021/08/04 00:45:39;;;;;;;2.13;0.80;;;19.00;70.50;;;;;;10351795;28;20685;-26
2021/08/04 00:51:01;;;;;;;2.90;1.10;;;19.10;70.70;;;;;;10372077;28;20222;-28
2021/08/04 00:56:23;;;;;;;2.30;0.93;;;19.00;70.80;;;;;;10331317;28;20191;-26
2021/08/04 01:01:50;;;;;;;1.50;0.90;;;19.10;70.40;;;;;;10331206;28;20219;-29
2021/08/04 01:07:18;;;;;;;1.40;1.10;;;19.10;70.40;;;;;;10331165;28;20588;-25
2021/08/04 01:12:47;;;;;;;1.60;0.87;;;19.10;70.00;;;;;;10329974;28;20192;-26
2021/08/04 01:18:13;;;;;;;2.90;1.00;;;19.10;70.20;;;;;;10329613;28;20236;-25
2021/08/04 01:23:41;;;;;;;1.67;0.90;;;19.00;70.30;;;;;;10329105;28;20258;-25
2021/08/04 01:29:09;;;;;;;1.63;1.13;;;19.00;70.20;;;;;;10333377;28;20262;-27
2021/08/04 01:34:35;;;;;;;1.93;1.00;;;19.10;70.00;;;;;;10336713;28;20213;-25
2021/08/04 01:39:58;;;;;;;1.03;0.93;;;19.10;69.30;;;;;;10329831;28;20230;-27
2021/08/04 01:45:22;;;;;;;1.17;1.07;;;19.10;69.60;;;;;;10333090;28;20207;-26
2021/08/04 01:50:45;;;;;;;3.07;1.10;;;19.10;69.40;;;;;;10335813;28;20215;-22
2021/08/04 01:56:08;;;;;;;2.90;1.10;;;19.10;69.10;;;;;;10330198;28;20206;-25
2021/08/04 02:01:31;;;;;;;3.03;1.07;;;19.10;69.30;;;;;;10330410;28;20221;-23
2021/08/04 02:06:59;;;;;;;1.80;0.90;;;19.10;69.10;;;;;;10329352;28;20218;-25
2021/08/04 02:12:22;;;;;;;1.27;0.90;;;19.00;68.80;;;;;;10328484;28;20203;-24
2021/08/04 02:17:49;;;;;;;3.33;1.27;;;19.00;68.90;;;;;;10328258;28;20741;-23
2021/08/04 02:23:14;;;;;;;4.33;0.90;;;19.00;68.50;;;;;;10329669;28;20213;-26
2021/08/04 02:28:38;;;;;;;1.27;0.90;;;19.00;68.80;;;;;;10316015;28;20215;-25
2021/08/04 02:34:02;;;;;;;0.87;0.83;;;19.00;68.60;;;;;;10328105;28;20299;-25
2021/08/04 02:39:25;;;;;;;2.33;1.10;;;19.10;68.50;;;;;;10327559;28;20227;-27
2021/08/04 02:44:47;;;;;;;1.20;0.90;;;18.90;68.80;;;;;;10326021;28;20199;-25
2021/08/04 02:50:14;;;;;;;1.50;1.10;;;18.90;69.30;;;;;;10354470;28;20218;-24
2021/08/04 02:55:36;;;;;;;1.60;0.77;;;18.80;69.50;;;;;;10364528;28;20567;-25
2021/08/04 03:00:58;;;;;;;2.73;1.20;;;18.80;69.40;;;;;;10328246;28;20599;-28
2021/08/04 03:06:21;;;;;;;1.43;1.17;;;18.90;69.50;;;;;;10331096;28;20583;-28
2021/08/04 03:11:43;;;;;;;1.10;0.90;;;18.80;69.60;;;;;;10327179;28;20187;-21
2021/08/04 03:17:05;;;;;;;2.00;1.00;;;18.80;69.50;;;;;;10334366;28;20226;-26
2021/08/04 03:22:29;;;;;;;0.87;0.77;;;18.70;69.50;;;;;;10333970;28;20223;-26
2021/08/04 03:27:51;;;;;;;1.47;1.07;;;18.70;69.70;;;;;;10334276;28;20215;-25
2021/08/04 03:33:13;;;;;;;2.37;1.20;;;18.60;70.30;;;;;;10334525;28;20187;-26
2021/08/04 03:38:36;;;;;;;2.17;1.10;;;18.60;70.70;;;;;;10334715;28;20598;-26
2021/08/04 03:43:58;;;;;;;1.10;1.00;;;18.60;70.90;;;;;;10333685;28;20203;-24
2021/08/04 03:49:21;;;;;;;2.60;1.30;;;18.60;70.90;;;;;;10333188;28;20211;-26
2021/08/04 03:54:45;;;;;;;1.13;1.03;;;18.50;71.20;;;;;;10351236;28;20202;-26
2021/08/04 04:00:09;;;;;;;1.10;1.00;;;18.60;71.10;;;;;;10373363;28;20587;-28
2021/08/04 04:05:31;;;;;;;1.53;1.27;;;18.60;71.20;;;;;;10359807;28;20211;-24
2021/08/04 04:10:54;;;;;;;1.77;1.13;;;18.50;71.50;;;;;;10333024;28;20219;-25
2021/08/04 04:16:16;;;;;;;1.10;1.00;;;18.50;71.90;;;;;;10326157;28;20206;-27
2021/08/04 04:21:38;;;;;;;1.17;1.07;;;18.40;72.40;;;;;;10332501;28;20211;-25
2021/08/04 04:27:01;;;;;;;1.97;1.20;;;18.50;72.50;;;;;;10333674;28;20229;-30
2021/08/04 04:32:24;;;;;;;2.07;1.40;;;18.40;72.70;;;;;;10325236;28;20206;-26
2021/08/04 04:37:46;;;;;;;1.93;1.50;;;18.40;72.80;;;;;;10331681;28;20576;-29
2021/08/04 04:43:09;;;;;;;1.87;1.60;;;18.30;72.90;;;;;;10331079;28;20218;-25
2021/08/04 04:48:31;;;;;;;1.57;1.40;;;18.30;72.90;;;;;;10325770;28;20226;-28
2021/08/04 04:53:53;;;;;;;1.47;1.13;;;18.30;73.40;;;;;;10342102;28;20190;-24
2021/08/04 04:59:17;;;;;;;3.20;1.70;;;18.30;73.40;;;;;;10349829;28;20225;-26
2021/08/04 05:04:39;;;;;;;2.07;1.20;;;18.30;73.60;;;;;;10350943;28;20194;-31
2021/08/04 05:10:01;;;;;;;2.70;1.40;;;18.30;73.50;;;;;;10346576;28;20643;-28
2021/08/04 05:15:25;;;;;;;1.60;1.40;;;18.30;73.70;;;;;;10350016;28;20205;-26
2021/08/04 05:20:47;;;;;;;3.93;1.50;;;18.30;73.30;;;;;;10348514;28;20225;-24
2021/08/04 05:26:09;;;;;;;2.27;1.30;;;18.50;72.80;;;;;;10347267;28;20264;-25
2021/08/04 05:31:32;;;;;;;2.30;1.10;;;18.60;72.50;;;;;;10349178;28;20701;-26
2021/08/04 05:36:54;;;;;;;1.87;1.43;;;18.70;72.10;;;;;;10351615;28;20725;-25
2021/08/04 05:42:16;;;;;;;2.00;1.20;;;18.70;72.00;;;;;;10350088;28;20742;-28
2021/08/04 05:47:40;;;;;;;2.30;1.40;;;18.70;71.50;;;;;;10343067;28;20226;-27
2021/08/04 05:53:02;;;;;;;1.73;1.20;;;18.70;71.80;;;;;;10328458;28;20199;-27
2021/08/04 05:58:24;;;;;;;4.73;1.10;;;18.70;71.50;;;;;;10323162;28;20218;-23
2021/08/04 06:03:48;;;;;;;2.07;1.30;;;18.70;71.60;;;;;;10319881;28;20226;-26
2021/08/04 06:09:10;;;;;;;3.63;1.40;;;18.70;70.90;;;;;;10335059;28;20234;-27
2021/08/04 06:14:32;;;;;;;1.87;1.30;;;18.70;70.60;;;;;;10328151;28;20315;-27
2021/08/04 06:19:55;;;;;;;1.63;1.30;;;18.70;70.30;;;;;;10404452;22;20708;-31
2021/08/04 06:25:17;;;;;;;2.07;1.20;;;18.80;70.10;;;;;;10428929;28;20202;-31
2021/08/04 06:30:40;;;;;;;2.43;1.30;;;18.70;70.40;;;;;;10405183;28;20214;-32
2021/08/04 06:36:03;;;;;;;2.23;1.17;;;18.70;70.60;;;;;;10409403;28;20551;-30
2021/08/04 06:41:25;;;;;;;1.70;1.20;;;18.80;70.40;;;;;;10404330;28;20229;-30
2021/08/04 06:46:47;;;;;;;1.20;0.90;;;18.80;70.40;;;;;;10419898;28;20197;-29
2021/08/04 06:52:11;;;;;;;1.77;1.17;;;18.80;70.20;;;;;;10414180;28;20213;-30
2021/08/04 06:57:33;;;;;;;1.67;1.13;;;18.90;70.40;;;;;;10415966;28;20241;-29
2021/08/04 07:02:55;;;;;;;1.47;1.30;;;18.80;70.00;;;;;;10419123;28;20898;-29
2021/08/04 07:08:19;;;;;;;2.40;1.20;;;18.90;71.00;;;;;;10409493;28;20234;-30
2021/08/04 07:13:41;;;;;;;2.43;1.30;;;18.90;71.20;;;;;;10379751;28;20237;-30
2021/08/04 07:19:04;;;;;;;4.27;1.20;;;18.90;71.60;;;;;;10400074;28;20222;-30
2021/08/04 07:24:27;;;;;;;2.27;1.30;;;19.00;71.10;;;;;;10421233;28;20197;-30
2021/08/04 07:29:49;;;;;;;2.00;1.37;;;19.10;71.20;;;;;;10419568;28;20217;-29
2021/08/04 07:35:11;;;;;;;1.47;1.10;;;19.20;71.40;;;;;;10394105;28;20201;-30
2021/08/04 07:40:35;;;;;;;1.30;1.20;;;19.20;71.30;;;;;;10377946;28;20233;-33
2021/08/04 07:45:57;;;;;;;3.37;1.30;;;19.30;71.30;;;;;;10376983;28;20198;-29
2021/08/04 07:51:19;;;;;;;3.50;1.30;;;19.30;71.20;;;;;;10377570;28;20265;-30
2021/08/04 07:56:43;;;;;;;1.47;1.10;;;19.40;71.30;;;;;;10437249;28;20234;-30
2021/08/04 08:02:05;;;;;;;2.67;1.60;;;19.40;71.40;;;;;;10456648;28;20220;-33
2021/08/04 08:07:27;;;;;;;2.93;1.37;;;19.40;70.80;;;;;;10423439;28;20229;-32
2021/08/04 08:12:51;;;;;;;1.40;1.20;;;19.50;70.70;;;;;;10385223;28;20193;-30
2021/08/04 08:18:13;;;;;;;2.07;1.50;;;19.50;70.60;;;;;;10391298;28;20252;-30
2021/08/04 08:23:35;;;;;;;2.23;1.33;;;19.50;70.70;;;;;;10421292;28;20725;-31
2021/08/04 08:28:59;;;;;;;2.80;1.40;;;19.50;70.50;;;;;;10424579;28;20689;-32
2021/08/04 08:34:21;;;;;;;1.73;1.60;;;19.60;70.70;;;;;;10393492;28;20202;-32
2021/08/04 08:39:43;;;;;;;3.47;1.50;;;19.60;70.50;;;;;;10412555;28;20214;-31
2021/08/04 08:45:08;;;;;;;2.37;1.83;;;19.60;71.10;;;;;;10418934;28;20198;-30
2021/08/04 08:50:31;;;;;;;3.13;1.37;;;19.60;70.40;;;;;;10373745;28;20214;-30
2021/08/04 08:55:53;;;;;;;1.87;1.60;;;19.60;70.40;;;;;;10400695;28;20213;-30
2021/08/04 09:01:17;;;;;;;3.00;1.70;;;19.60;71.00;;;;;;10407468;28;20628;-30
2021/08/04 09:06:47;;;;;;;3.27;1.33;;;19.60;71.30;;;;;;10394305;28;20198;-32
2021/08/04 09:12:14;;;;;;;2.13;1.63;;;19.60;71.10;;;;;;10378432;28;20806;-31
2021/08/04 09:17:38;;;;;;;3.17;1.60;;;19.60;71.40;;;;;;10387577;28;20233;-29
2021/08/04 09:23:01;;;;;;;2.33;1.40;;;19.70;71.50;;;;;;10420915;28;20589;-30
2021/08/04 09:28:23;;;;;;;2.23;1.40;;;19.60;71.50;;;;;;10413841;28;20217;-30
2021/08/04 09:33:48;;;;;;;1.77;1.47;;;19.70;71.60;;;;;;10415923;28;20190;-28
2021/08/04 09:39:10;;;;;;;3.63;1.53;;;19.70;71.90;;;;;;10397556;28;20699;-28
2021/08/04 09:44:33;;;;;;;4.73;1.80;;;19.70;71.70;;;;;;10376117;28;20199;-29
2021/08/04 09:49:57;;;;;;;2.70;1.73;;;19.70;70.10;;;;;;10376062;28;20214;-29
2021/08/04 09:55:20;;;;;;;10.03;2.33;;;19.80;69.50;;;;;;10396654;28;20673;-29
2021/08/04 10:00:50;;;;;;;3.33;1.90;;;19.70;68.60;;;;;;10404034;28;20216;-30
2021/08/04 10:06:20;;;;;;;3.40;2.10;;;19.80;69.20;;;;;;10409976;28;20220;-30
2021/08/04 10:11:44;;;;;;;3.53;2.13;;;19.80;68.90;;;;;;10369764;28;20202;-31
2021/08/04 10:17:07;;;;;;;4.23;2.00;;;19.80;68.40;;;;;;10412399;28;20232;-31
2021/08/04 10:22:30;;;;;;;3.63;2.10;;;19.80;67.80;;;;;;10421077;28;20217;-32
2021/08/04 10:27:53;;;;;;;2.43;1.97;;;19.80;67.30;;;;;;10406545;28;20605;-31
2021/08/04 10:33:15;;;;;;;2.80;1.70;;;19.80;67.70;;;;;;10420025;28;20210;-30
2021/08/04 10:38:44;;;;;;;2.27;2.00;;;19.80;68.00;;;;;;10418435;28;20221;-30
2021/08/04 10:44:08;;;;;;;2.50;1.80;;;19.80;68.20;;;;;;10421953;28;20224;-30
2021/08/04 10:49:32;;;;;;;3.30;1.73;;;19.80;68.70;;;;;;10395219;28;20222;-32
2021/08/04 10:55:20;;;;;;;5.57;2.33;;;19.80;68.70;;;;;;10417735;28;20561;-31
2021/08/04 11:00:42;;;;;;;4.33;2.40;;;19.80;68.90;;;;;;10384934;28;20211;-30
2021/08/04 11:06:05;;;;;;;2.90;1.80;;;19.80;68.90;;;;;;10397332;28;20205;-31
2021/08/04 11:11:54;;;;;;;4.50;2.00;;;19.80;69.10;;;;;;10419962;28;20225;-33
2021/08/04 11:17:18;;;;;;;3.97;2.00;;;19.80;69.40;;;;;;10391117;28;20303;-31
2021/08/04 11:22:47;;;;;;;4.47;1.90;;;19.80;70.20;;;;;;10404380;28;20645;-31
2021/08/04 11:28:21;;;;;;;3.63;1.93;;;19.80;70.10;;;;;;10383211;28;20218;-30
2021/08/04 11:33:43;;;;;;;4.87;2.17;;;19.80;70.20;;;;;;10383840;28;20191;-31
2021/08/04 11:39:08;;;;;;;3.23;1.70;;;19.80;70.60;;;;;;10417623;28;20210;-32
2021/08/04 11:44:34;;;;;;;1.80;1.53;;;19.80;70.90;;;;;;10390196;28;20215;-29
2021/08/04 11:49:57;;;;;;;2.33;1.70;;;19.80;70.70;;;;;;10412020;28;20277;-28
2021/08/04 11:55:24;;;;;;;4.00;1.90;;;19.80;70.70;;;;;;10412178;28;20281;-32
2021/08/04 12:00:47;;;;;;;1.47;1.30;;;19.80;71.10;;;;;;10421150;28;20300;-32
2021/08/04 12:06:17;;;;;;;2.10;1.57;;;19.80;70.80;;;;;;10419521;28;20201;-30
2021/08/04 12:11:41;;;;;;;4.73;1.60;;;19.80;70.90;;;;;;10418100;28;20193;-30
2021/08/04 12:17:05;;;;;;;2.87;1.67;;;19.80;71.40;;;;;;10415391;28;20567;-31
2021/08/04 12:22:29;;;;;;;2.03;1.47;;;19.80;71.20;;;;;;10498581;22;20231;-24
2021/08/04 12:27:53;;;;;;;2.90;1.60;;;19.80;71.20;;;;;;10496176;28;20201;-26
2021/08/04 12:33:19;;;;;;;2.20;1.40;;;19.80;71.70;;;;;;10449225;28;20219;-26
2021/08/04 12:38:43;;;;;;;2.80;1.43;;;19.80;71.30;;;;;;10412516;28;20206;-26
2021/08/04 12:44:16;;;;;;;2.10;1.33;;;19.80;71.40;;;;;;10412099;28;20217;-27
2021/08/04 12:49:39;;;;;;;3.13;1.40;;;19.80;71.30;;;;;;10412739;28;20581;-26
2021/08/04 12:55:11;;;;;;;1.40;1.30;;;19.80;71.80;;;;;;10450150;28;20197;-28
2021/08/04 13:00:36;;;;;;;2.50;1.43;;;19.80;71.80;;;;;;10453595;28;20225;-24
2021/08/04 13:06:00;;;;;;;3.77;1.30;;;19.80;71.60;;;;;;10443054;28;20688;-23
2021/08/04 13:11:26;;;;;;;4.10;1.60;;;19.90;71.00;;;;;;10446929;28;20217;-27
2021/08/04 13:16:48;;;;;;;1.30;1.20;;;19.90;70.80;;;;;;10456808;28;20193;-25
2021/08/04 13:22:11;;;;;;;1.40;1.30;;;19.90;70.80;;;;;;10463801;28;20221;-24
2021/08/04 13:27:36;;;;;;;3.13;1.50;;;19.90;70.10;;;;;;10454867;28;20204;-24
2021/08/04 13:33:01;;;;;;;4.47;1.73;;;19.90;70.10;;;;;;10477637;28;20231;-28
2021/08/04 13:38:24;;;;;;;2.30;1.40;;;20.00;70.10;;;;;;10452661;28;20224;-24
2021/08/04 13:43:47;;;;;;;1.70;1.23;;;19.90;70.00;;;;;;10476389;28;20221;-26
2021/08/04 13:49:09;;;;;;;1.80;1.30;;;20.00;70.60;;;;;;10491869;28;20220;-24
2021/08/04 13:54:32;;;;;;;3.03;1.47;;;20.00;70.80;;;;;;10478882;28;20193;-25
2021/08/04 13:59:55;;;;;;;2.67;1.10;;;20.00;70.80;;;;;;10453597;28;20209;-25
2021/08/04 14:05:18;;;;;;;1.47;1.27;;;20.00;70.40;;;;;;10451118;28;20231;-25
2021/08/04 14:10:41;;;;;;;2.17;1.40;;;20.00;70.40;;;;;;10450427;28;20217;-30
2021/08/04 14:16:04;;;;;;;1.40;1.10;;;20.00;70.40;;;;;;10453035;28;20197;-26
2021/08/04 14:21:26;;;;;;;2.60;1.30;;;20.00;70.10;;;;;;10458064;28;20225;-24
2021/08/04 14:26:49;;;;;;;1.67;1.47;;;20.00;69.10;;;;;;10450319;28;20200;-25
2021/08/04 14:32:12;;;;;;;1.53;1.17;;;20.00;69.30;;;;;;10443558;28;20217;-26
2021/08/04 14:37:34;;;;;;;4.03;1.60;;;20.00;69.80;;;;;;10445590;28;20687;-25
2021/08/04 14:42:58;;;;;;;2.10;1.30;;;20.00;69.20;;;;;;10465629;28;20236;-29
2021/08/04 14:48:20;;;;;;;2.30;1.60;;;20.00;69.00;;;;;;10470934;28;20200;-26
2021/08/04 14:53:42;;;;;;;3.33;1.20;;;20.00;69.40;;;;;;10449347;28;20225;-27
2021/08/04 14:59:05;;;;;;;2.33;1.60;;;20.00;69.40;;;;;;10450904;28;20216;-25
2021/08/04 15:04:27;;;;;;;2.23;1.40;;;20.00;68.80;;;;;;10428433;28;20592;-27
2021/08/04 15:09:50;;;;;;;1.53;1.43;;;20.00;69.20;;;;;;10456757;28;20221;-25
2021/08/04 15:15:13;;;;;;;3.47;1.80;;;20.00;69.70;;;;;;10452650;28;20204;-24
2021/08/04 15:20:36;;;;;;;1.33;1.23;;;20.00;70.00;;;;;;10422517;28;20221;-27
2021/08/04 15:25:58;;;;;;;2.77;1.73;;;20.00;70.30;;;;;;10468357;28;20208;-24
2021/08/04 15:31:21;;;;;;;4.13;1.77;;;20.00;70.70;;;;;;10486787;28;20226;-25
2021/08/04 15:36:43;;;;;;;2.17;1.70;;;20.00;70.80;;;;;;10457594;28;20196;-24
2021/08/04 15:42:05;;;;;;;2.20;1.70;;;20.00;70.70;;;;;;10440968;28;20232;-25
2021/08/04 15:47:29;;;;;;;1.60;1.50;;;20.00;70.90;;;;;;10435608;28;20201;-28
2021/08/04 15:52:51;;;;;;;1.90;1.47;;;20.00;70.90;;;;;;10455446;28;20271;-26
2021/08/04 15:58:13;;;;;;;1.43;1.33;;;20.00;71.00;;;;;;10455069;28;20197;-25
2021/08/04 16:03:37;;;;;;;1.67;1.40;;;20.00;70.90;;;;;;10457103;28;20217;-25
2021/08/04 16:08:59;;;;;;;2.33;1.70;;;20.00;71.40;;;;;;10455226;28;20615;-24
2021/08/04 16:14:21;;;;;;;2.57;1.50;;;20.00;71.50;;;;;;10451306;28;20216;-25
2021/08/04 16:19:47;;;;;;;2.90;1.90;;;20.00;72.20;;;;;;10479114;28;20228;-25
2021/08/04 16:25:12;;;;;;;2.10;1.70;;;20.00;72.90;;;;;;10441875;28;20229;-24
2021/08/04 16:30:34;;;;;;;1.40;1.30;;;20.00;73.00;;;;;;10443259;28;20217;-28
2021/08/04 16:35:58;;;;;;;2.17;1.53;;;20.00;73.10;;;;;;10456258;28;20710;-25
2021/08/04 16:41:20;;;;;;;2.67;1.30;;;20.00;73.30;;;;;;10451475;28;20726;-25
2021/08/04 16:46:42;;;;;;;1.90;1.37;;;20.00;73.40;;;;;;10454637;28;20259;-26
2021/08/04 16:52:05;;;;;;;3.00;1.20;;;20.00;73.70;;;;;;10457189;28;20219;-28
2021/08/04 16:57:32;;;;;;;3.03;1.37;;;20.00;73.30;;;;;;10454214;28;20197;-24
2021/08/04 17:02:55;;;;;;;3.57;1.60;;;20.00;73.60;;;;;;10450149;28;20288;-24
2021/08/04 17:08:19;;;;;;;1.20;1.10;;;20.00;73.40;;;;;;10410971;28;20201;-24
2021/08/04 17:13:41;;;;;;;2.03;1.17;;;20.00;73.30;;;;;;10409412;28;20589;-22
2021/08/04 17:19:03;;;;;;;5.00;1.43;;;20.00;73.00;;;;;;10436563;28;20302;-27
2021/08/04 17:24:26;;;;;;;2.10;1.70;;;20.00;73.30;;;;;;10444155;28;20220;-25
2021/08/04 17:29:48;;;;;;;2.70;1.10;;;19.90;73.20;;;;;;10450766;28;20290;-25
2021/08/04 17:35:11;;;;;;;3.73;1.63;;;20.00;73.00;;;;;;10452072;28;20193;-24
2021/08/04 17:40:34;;;;;;;1.27;1.17;;;19.90;72.20;;;;;;10462569;28;20231;-30
2021/08/04 17:45:57;;;;;;;2.23;1.40;;;19.90;72.30;;;;;;10467905;28;20220;-23
2021/08/04 17:51:20;;;;;;;3.30;1.10;;;19.90;71.30;;;;;;10445470;28;20264;-25
2021/08/04 17:56:44;;;;;;;1.93;1.37;;;20.00;71.20;;;;;;10452600;28;20200;-27
2021/08/04 18:02:06;;;;;;;1.30;1.20;;;19.90;70.20;;;;;;10451885;28;20565;-26
2021/08/04 18:07:28;;;;;;;1.60;1.30;;;19.90;70.50;;;;;;10446924;28;20200;-27
2021/08/04 18:12:52;;;;;;;1.40;1.20;;;19.90;70.30;;;;;;10451889;28;20213;-24
2021/08/04 18:18:14;;;;;;;1.60;1.17;;;19.90;70.60;;;;;;10448755;28;20694;-24
2021/08/04 18:23:36;;;;;;;4.87;1.50;;;19.90;70.10;;;;;;10427108;22;20226;-33
2021/08/04 18:29:00;;;;;;;1.50;1.20;;;19.90;70.40;;;;;;10407964;28;20236;-31
2021/08/04 18:34:22;;;;;;;2.13;1.23;;;19.80;69.90;;;;;;10327245;28;20207;-30
2021/08/04 18:39:44;;;;;;;1.43;1.00;;;19.80;70.00;;;;;;10333933;28;20698;-31
2021/08/04 18:45:09;;;;;;;1.80;1.17;;;19.80;70.40;;;;;;10385380;28;20609;-31
2021/08/04 18:50:31;;;;;;;1.33;1.23;;;19.80;70.90;;;;;;10406833;28;20307;-31
2021/08/04 18:55:53;;;;;;;3.50;1.33;;;19.70;71.30;;;;;;10389784;28;20195;-31
2021/08/04 19:01:17;;;;;;;1.57;1.37;;;19.70;71.70;;;;;;10395877;28;20228;-31
2021/08/04 19:06:39;;;;;;;2.10;1.30;;;19.70;72.30;;;;;;10391535;28;20204;-30
2021/08/04 19:12:01;;;;;;;1.30;1.20;;;19.70;72.90;;;;;;10388024;28;20226;-31
2021/08/04 19:17:24;;;;;;;3.10;1.63;;;19.60;73.40;;;;;;10389056;28;20198;-31
2021/08/04 19:22:46;;;;;;;3.07;1.70;;;19.60;73.90;;;;;;10389350;28;20229;-29
2021/08/04 19:28:08;;;;;;;3.00;1.40;;;19.60;74.10;;;;;;10384412;28;20279;-29
2021/08/04 19:33:32;;;;;;;2.23;1.30;;;19.60;74.10;;;;;;10385266;28;20221;-29
2021/08/04 19:38:54;;;;;;;1.70;1.40;;;19.60;74.10;;;;;;10387355;28;20202;-30
2021/08/04 19:44:16;;;;;;;2.53;1.40;;;19.50;73.90;;;;;;10386069;28;20645;-31
2021/08/04 19:49:40;;;;;;;2.70;1.60;;;19.50;73.80;;;;;;10392831;28;20566;-30
2021/08/04 19:55:02;;;;;;;1.43;1.30;;;19.50;73.70;;;;;;10391284;28;20213;-29
2021/08/04 20:00:24;;;;;;;2.07;1.47;;;19.50;74.10;;;;;;10391487;28;20218;-30
2021/08/04 20:05:47;;;;;;;2.33;1.43;;;19.40;74.00;;;;;;10394784;28;20219;-30
2021/08/04 20:11:09;;;;;;;2.37;1.23;;;19.40;74.70;;;;;;10400951;28;20222;-30
2021/08/04 20:16:32;;;;;;;1.83;1.70;;;19.50;74.90;;;;;;10382233;28;20186;-31
2021/08/04 20:21:55;;;;;;;2.00;1.17;;;19.50;75.30;;;;;;10339706;28;1075221;-29
2021/08/04 20:27:17;;;;;;;2.23;1.30;;;19.50;75.50;;;;;;10372792;28;20673;-31
2021/08/04 20:32:40;;;;;;;1.50;1.40;;;19.40;75.70;;;;;;10376654;28;20252;-31
2021/08/04 20:38:03;;;;;;;2.13;1.47;;;19.50;76.00;;;;;;10376037;28;20570;-30
2021/08/04 20:43:26;;;;;;;3.70;1.90;;;19.40;76.30;;;;;;10382271;28;20213;-30
2021/08/04 20:48:48;;;;;;;1.50;1.40;;;19.40;76.80;;;;;;10383173;28;20201;-29
2021/08/04 20:54:11;;;;;;;1.90;1.40;;;19.40;77.10;;;;;;10393359;28;20221;-31
2021/08/04 20:59:38;;;;;;;2.47;1.57;;;19.40;77.50;;;;;;10374342;28;20215;-29
2021/08/04 21:05:02;;;;;;;2.40;1.33;;;19.40;77.60;;;;;;10374704;28;20698;-28
2021/08/04 21:10:26;;;;;;;2.00;1.70;;;19.30;77.50;;;;;;10371321;28;20721;-29
2021/08/04 21:15:49;;;;;;;1.83;1.30;;;19.40;77.70;;;;;;10384274;28;20273;-31
2021/08/04 21:21:11;;;;;;;1.93;1.40;;;19.30;78.20;;;;;;10403826;28;20586;-31
2021/08/04 21:26:34;;;;;;;1.80;1.53;;;19.20;78.50;;;;;;10375975;28;20757;-30
2021/08/04 21:31:56;;;;;;;2.03;1.50;;;19.20;78.30;;;;;;10405045;28;20222;-30
2021/08/04 21:37:19;;;;;;;2.87;1.50;;;19.20;78.20;;;;;;10383638;28;20205;-31
2021/08/04 21:42:42;;;;;;;1.43;1.30;;;19.20;78.30;;;;;;10374437;28;20692;-30
2021/08/04 21:48:05;;;;;;;1.87;1.20;;;19.20;78.60;;;;;;10412480;28;20193;-29
2021/08/04 21:53:27;;;;;;;2.80;1.60;;;19.10;78.50;;;;;;10373412;28;20210;-31
2021/08/04 21:58:50;;;;;;;3.27;1.63;;;19.10;78.00;;;;;;10372436;28;20670;-30
2021/08/04 22:04:12;;;;;;;2.50;1.77;;;19.10;78.00;;;;;;10364587;28;20218;-29
2021/08/04 22:09:34;;;;;;;3.70;1.80;;;19.10;78.00;;;;;;10410555;28;20239;-31
2021/08/04 22:14:58;;;;;;;1.70;1.60;;;19.10;78.10;;;;;;10411328;28;20190;-28
2021/08/04 22:20:20;;;;;;;3.90;1.40;;;19.10;78.10;;;;;;10398701;28;20264;-30
2021/08/04 22:25:42;;;;;;;3.03;1.63;;;19.10;78.10;;;;;;10373584;28;20215;-30
2021/08/04 22:31:06;;;;;;;2.00;1.77;;;19.10;78.20;;;;;;10378833;28;20218;-32
2021/08/04 22:36:28;;;;;;;1.80;1.63;;;19.00;78.20;;;;;;10377556;28;20293;-31
2021/08/04 22:41:50;;;;;;;1.70;1.60;;;19.10;78.20;;;;;;10407930;28;20220;-32
2021/08/04 22:47:14;;;;;;;3.10;2.10;;;19.10;78.10;;;;;;10414816;28;20192;-31
2021/08/04 22:52:36;;;;;;;4.97;1.80;;;19.00;78.60;;;;;;10414864;28;20222;-32
2021/08/04 22:57:58;;;;;;;2.60;1.60;;;19.00;78.50;;;;;;10386701;28;20202;-29
2021/08/04 23:03:21;;;;;;;4.57;1.97;;;19.00;78.60;;;;;;10374484;28;20748;-31
2021/08/04 23:08:43;;;;;;;2.27;1.77;;;19.00;78.60;;;;;;10401403;28;20673;-30
2021/08/04 23:14:05;;;;;;;3.77;2.10;;;19.10;78.60;;;;;;10370347;28;20195;-31
2021/08/04 23:19:29;;;;;;;3.67;2.07;;;19.00;78.50;;;;;;10407782;28;20689;-31
2021/08/04 23:24:51;;;;;;;3.87;1.90;;;19.10;78.70;;;;;;10405779;28;20704;-33
2021/08/04 23:30:13;;;;;;;2.80;1.93;;;19.00;78.70;;;;;;10418497;28;20627;-31
2021/08/04 23:35:37;;;;;;;3.17;2.07;;;19.00;78.80;;;;;;10416189;28;20705;-30
2021/08/04 23:40:59;;;;;;;4.70;1.93;;;19.00;78.80;;;;;;10365104;28;20218;-29
2021/08/04 23:46:21;;;;;;;2.57;1.90;;;19.00;78.70;;;;;;10408222;28;20222;-30
2021/08/04 23:51:45;;;;;;;2.30;1.93;;;19.00;78.80;;;;;;10414243;28;20229;-30
2021/08/04 23:57:07;;;;;;;2.43;2.10;;;18.90;78.80;;;;;;10415944;28;20202;-30
